Terminal Aerodrome Forecast
Issued by NWS

Home | Current Version | Previous Version | Text Only | Print | Product List | Glossary On
Versions: 1 2 3 4 5 6 7 8 9 10 11 12 13 14 15 16
000
FTUS41 KBOX 282026 AAA
TAFFMH
TAF AMD
KFMH 282026Z 2820/2918 13009KT P6SM BKN200
     FM290400 VRB03KT P6SM OVC100
     FM291300 07007KT P6SM BKN150=

USA.gov is the U.S. government's official web portal to all federal, state and local government web resources and services.